Time;durP1;ratioP1;P1;durP2;ratioP2;P2;SDS_P1;SDS_P2;PMS_P1;PMS_P2;Temp;Humidity;BMP_temperature;BMP_pressure;BME280_temperature;BME280_humidity;BME280_pressure;Samples;Min_cycle;Max_cycle;Signal;HPM_P1;HPM_P2
2023/01/04 00:01:07;;;;;;;7.75;4.20;;;;;;;14.38;40.64;100630.22;1761340;81;21018;-65
2023/01/04 00:03:34;;;;;;;10.80;4.40;;;;;;;14.11;41.42;100631.44;1761167;81;20976;-64
2023/01/04 00:06:05;;;;;;;7.20;4.70;;;;;;;14.12;41.64;100638.44;1755389;81;21588;-66
2023/01/04 00:08:33;;;;;;;8.08;4.42;;;;;;;13.78;40.96;100643.84;1761459;81;21086;-66
2023/01/04 00:11:06;;;;;;;6.58;3.67;;;;;;;14.13;41.19;100652.09;1761531;81;21200;-64
2023/01/04 00:13:32;;;;;;;7.80;4.70;;;;;;;14.09;41.14;100645.20;1760667;81;21061;-68
2023/01/04 00:16:07;;;;;;;7.33;4.28;;;;;;;13.94;40.91;100651.56;1761430;81;21195;-66
2023/01/04 00:18:35;;;;;;;6.33;4.20;;;;;;;14.15;41.30;100656.84;1761383;81;21027;-64
2023/01/04 00:21:12;;;;;;;6.35;4.20;;;;;;;13.59;41.59;100658.31;1761469;81;21062;-65
2023/01/04 00:23:39;;;;;;;7.20;4.50;;;;;;;13.78;41.29;100651.35;1761492;81;21558;-64
2023/01/04 00:26:25;;;;;;;8.35;3.95;;;;;;;14.48;40.61;100655.36;1761230;81;20998;-66
2023/01/04 00:28:58;;;;;;;8.83;4.10;;;;;;;14.54;39.69;100650.70;1761403;81;22216;-65
2023/01/04 00:31:25;;;;;;;8.40;4.05;;;;;;;14.66;39.71;100662.12;1761676;81;21247;-64
2023/01/04 00:34:00;;;;;;;8.08;4.40;;;;;;;14.62;40.20;100659.22;1761397;81;21530;-64
2023/01/04 00:36:27;;;;;;;5.53;3.58;;;;;;;14.48;39.48;100658.01;1736045;81;21082;-64
2023/01/04 00:39:06;;;;;;;6.42;3.95;;;;;;;14.64;39.98;100658.69;1761440;81;21602;-64
2023/01/04 00:41:42;;;;;;;5.83;3.67;;;;;;;14.84;39.18;100663.94;1761341;81;21034;-64
2023/01/04 00:44:09;;;;;;;8.45;3.72;;;;;;;14.74;39.59;100666.59;1761398;81;21014;-64
2023/01/04 00:46:37;;;;;;;5.28;3.50;;;;;;;14.73;39.82;100671.52;1761584;81;21113;-64
2023/01/04 00:49:04;;;;;;;6.83;3.67;;;;;;;14.71;39.02;100667.22;1761061;81;21975;-65
2023/01/04 00:51:32;;;;;;;6.58;3.85;;;;;;;14.76;39.21;100669.19;1761198;81;21097;-64
2023/01/04 00:54:02;;;;;;;7.25;3.52;;;;;;;15.07;38.59;100665.98;1761237;80;22173;-64
2023/01/04 00:56:31;;;;;;;7.08;3.98;;;;;;;15.10;38.11;100665.83;1761650;80;21077;-65
2023/01/04 00:59:01;;;;;;;11.12;4.03;;;;;;;15.05;38.38;100665.20;1761363;81;21082;-65
2023/01/04 01:01:28;;;;;;;6.37;3.90;;;;;;;14.97;38.36;100664.68;1761497;81;21100;-66
2023/01/04 01:03:56;;;;;;;5.03;3.60;;;;;;;14.35;39.14;100662.59;1761123;81;21581;-64
2023/01/04 01:06:25;;;;;;;7.85;3.70;;;;;;;13.47;40.61;100658.83;1761266;81;21586;-65
2023/01/04 01:08:52;;;;;;;7.35;3.67;;;;;;;12.82;41.52;100660.46;1761286;81;21046;-63
2023/01/04 01:11:19;;;;;;;5.28;3.50;;;;;;;12.84;42.08;100661.23;1761329;81;21097;-65
2023/01/04 01:13:48;;;;;;;5.70;3.50;;;;;;;12.94;41.99;100658.66;1761425;81;21887;-64
2023/01/04 01:16:18;;;;;;;5.78;3.40;;;;;;;12.99;41.78;100656.70;1735165;81;21053;-65
2023/01/04 01:18:44;;;;;;;6.33;3.10;;;;;;;13.20;41.85;100665.58;1761660;81;21113;-65
2023/01/04 01:21:14;;;;;;;8.00;3.60;;;;;;;13.36;41.14;100664.54;1761402;81;21483;-64
2023/01/04 01:23:42;;;;;;;6.03;3.55;;;;;;;12.98;41.63;100666.42;1761426;81;21183;-65
2023/01/04 01:26:13;;;;;;;5.00;3.37;;;;;;;12.67;42.60;100662.73;1761561;81;21244;-65
2023/01/04 01:28:40;;;;;;;8.28;3.33;;;;;;;13.81;40.06;100658.30;1761204;81;21094;-64
2023/01/04 01:31:09;;;;;;;5.75;3.20;;;;;;;13.93;40.09;100647.18;1761562;81;21101;-65
2023/01/04 01:33:39;;;;;;;7.08;3.55;;;;;;;14.16;39.82;100651.95;1761760;81;21062;-64
2023/01/04 01:36:06;;;;;;;5.45;3.40;;;;;;;14.03;39.79;100652.94;1761899;81;21053;-64
2023/01/04 01:38:32;;;;;;;4.60;3.15;;;;;;;13.40;40.81;100660.86;1761440;81;21252;-65
2023/01/04 01:40:59;;;;;;;8.68;3.72;;;;;;;14.19;39.84;100656.64;1761305;81;21035;-64
2023/01/04 01:43:54;;;;;;;8.00;3.22;;;;;;;12.95;41.75;100659.05;1761446;81;21007;-65
2023/01/04 01:46:42;;;;;;;9.25;3.72;;;;;;;14.02;40.20;100653.41;1761570;81;21617;-63
2023/01/04 01:49:30;;;;;;;7.33;3.45;;;;;;;13.61;40.21;100659.97;1761264;81;21054;-65
2023/01/04 01:51:59;;;;;;;7.95;3.45;;;;;;;14.25;39.69;100659.03;1745125;82;21227;-64
2023/01/04 01:54:30;;;;;;;5.10;3.70;;;;;;;14.36;39.65;100654.59;1744884;80;21041;-64
2023/01/04 01:56:59;;;;;;;5.30;3.27;;;;;;;13.91;39.31;100655.64;1745269;82;21065;-65
2023/01/04 02:02:09;;;;;;;6.27;3.67;;;;;;;13.52;40.15;100628.59;1795676;79;22607;-65
2023/01/04 02:04:40;;;;;;;5.83;3.60;;;;;;;13.52;40.15;100628.59;1692487;84;21105;-65
2023/01/04 02:07:07;;;;;;;6.40;3.20;;;;;;;14.07;39.68;100629.38;1693997;84;21147;-65
2023/01/04 02:09:35;;;;;;;6.25;3.37;;;;;;;14.27;40.35;100625.86;1680766;85;21276;-65
2023/01/04 02:12:04;;;;;;;5.85;3.40;;;;;;;14.58;38.77;100627.14;1665944;86;21007;-65
2023/01/04 02:14:30;;;;;;;6.62;3.55;;;;;;;13.81;40.29;100627.38;1665956;86;21095;-64
2023/01/04 02:17:23;;;;;;;4.90;3.30;;;;;;;15.20;37.44;100624.66;1665975;86;21115;-66
2023/01/04 02:20:29;;;;;;;7.47;3.50;;;;;;;15.34;37.23;100626.63;1666117;86;21138;-64
2023/01/04 02:23:50;;;;;;;6.40;3.55;;;;;;;14.82;38.13;100623.84;1655017;84;21007;-65
2023/01/04 02:26:53;;;;;;;;;;;;;;;14.89;37.50;100623.47;1676731;85;21076;-65
2023/01/04 02:30:08;;;;;;;5.55;3.40;;;;;;;14.79;37.48;100623.53;1674067;85;20208;-64
2023/01/04 02:32:52;;;;;;;7.78;2.98;;;;;;;14.34;38.00;100628.62;1674161;85;21087;-64
2023/01/04 02:35:27;;;;;;;6.00;3.20;;;;;;;14.66;37.78;100625.88;1674313;85;21213;-64
2023/01/04 02:38:16;;;;;;;6.45;3.10;;;;;;;14.10;38.81;100624.41;1673910;85;21489;-66
2023/01/04 02:40:51;;;;;;;7.30;3.20;;;;;;;14.21;37.98;100622.14;1673887;85;21127;-65
2023/01/04 02:46:32;;;;;;;6.92;3.30;;;;;;;14.47;38.38;100628.48;1674210;85;21077;-64
2023/01/04 02:51:44;;;;;;;5.72;3.35;;;;;;;13.66;38.94;100623.20;1647048;87;21076;-64
2023/01/04 02:54:21;;;;;;;7.28;3.33;;;;;;;13.96;38.83;100622.35;1646743;87;21124;-64
2023/01/04 02:57:18;;;;;;;5.22;3.40;;;;;;;13.81;38.70;100619.91;1647035;87;21093;-63
2023/01/04 03:00:06;;;;;;;5.12;3.10;;;;;;;13.42;39.75;100625.95;1646696;87;21088;-65
2023/01/04 03:06:17;;;;;;;6.45;3.33;;;;;;;13.49;38.97;100623.44;1669945;85;21096;-64
2023/01/04 03:08:55;;;;;;;8.15;3.52;;;;;;;13.49;38.97;100623.44;1673603;85;21037;-63
2023/01/04 03:14:19;;;;;;;6.97;3.77;;;;;;;13.71;39.40;100619.89;1673190;85;21084;-66
2023/01/04 03:16:47;;;;;;;5.40;3.35;;;;;;;13.74;38.91;100618.45;1673395;85;21547;-63
2023/01/04 03:19:14;;;;;;;5.33;3.45;;;;;;;13.74;39.01;100614.48;1673067;85;21072;-64
2023/01/04 03:21:43;;;;;;;6.15;3.45;;;;;;;13.96;39.34;100613.94;1673353;85;21044;-64
2023/01/04 03:35:51;;;;;;;10.55;4.30;;;;;;;13.71;39.35;100622.53;1673198;85;22059;-64
2023/01/04 03:50:46;;;;;;;5.87;3.42;;;;;;;14.09;38.64;100629.31;1673339;85;21025;-63
2023/01/04 03:53:13;;;;;;;5.97;3.77;;;;;;;14.29;38.01;100626.66;1673256;85;21115;-64
2023/01/04 03:55:40;;;;;;;8.18;3.65;;;;;;;14.48;37.90;100628.86;1673054;85;21006;-63
2023/01/04 03:58:07;;;;;;;8.50;3.85;;;;;;;14.13;39.05;100627.79;1673156;85;21156;-65
2023/01/04 04:00:33;;;;;;;7.33;3.70;;;;;;;14.37;37.70;100624.50;1671646;85;21691;-64
2023/01/04 04:03:06;;;;;;;6.20;3.70;;;;;;;14.53;38.06;100623.34;1658706;86;21085;-64
2023/01/04 04:08:28;;;;;;;8.03;3.87;;;;;;;14.27;37.75;100629.83;1725057;82;21671;-66
2023/01/04 04:11:29;;;;;;;6.28;3.65;;;;;;;15.25;36.81;100626.64;1713081;83;21881;-64
2023/01/04 04:13:29;;;;;;;7.22;4.42;;;;;;;14.59;37.31;100634.19;1711385;83;21090;-64
2023/01/04 04:15:56;;;;;;;5.67;3.92;;;;;;;14.67;37.35;100633.35;1713005;83;21085;-65
2023/01/04 04:18:23;;;;;;;8.63;4.20;;;;;;;14.63;38.12;100631.77;1713077;83;21528;-66
2023/01/04 04:20:57;;;;;;;10.90;4.67;;;;;;;14.12;37.96;100641.09;1713199;83;21077;-65
2023/01/04 04:23:24;;;;;;;7.85;4.15;;;;;;;14.43;37.54;100636.16;1713361;83;21267;-64
2023/01/04 04:25:51;;;;;;;9.63;4.35;;;;;;;13.95;38.99;100632.09;1713131;82;21054;-64
2023/01/04 04:28:17;;;;;;;7.87;4.17;;;;;;;13.94;38.46;100625.09;1713213;83;21014;-64
2023/01/04 04:30:44;;;;;;;6.75;3.85;;;;;;;14.20;38.49;100623.09;1713021;82;21045;-64
2023/01/04 04:33:11;;;;;;;8.13;4.67;;;;;;;14.25;38.42;100631.21;1713053;83;21078;-65
2023/01/04 04:35:38;;;;;;;7.05;4.40;;;;;;;14.22;38.46;100634.48;1713002;83;21507;-64
2023/01/04 04:38:05;;;;;;;6.37;4.20;;;;;;;13.78;39.26;100635.47;1713232;83;21010;-64
2023/01/04 04:43:18;;;;;;;9.43;3.90;;;;;;;14.82;37.67;100628.67;1712968;83;22154;-63
2023/01/04 04:45:44;;;;;;;5.72;4.28;;;;;;;14.80;37.48;100629.20;1713029;83;21042;-64
2023/01/04 04:48:11;;;;;;;8.85;4.30;;;;;;;15.09;37.14;100641.11;1712998;82;21205;-65
2023/01/04 04:50:37;;;;;;;5.28;4.00;;;;;;;15.09;37.14;100641.11;1712927;83;21038;-64
2023/01/04 04:53:04;;;;;;;7.08;4.00;;;;;;;14.84;37.17;100637.89;1713208;83;21010;-65
2023/01/04 04:55:31;;;;;;;6.70;3.90;;;;;;;15.05;36.98;100641.33;1712988;83;21042;-64
2023/01/04 04:57:57;;;;;;;7.50;4.33;;;;;;;14.74;37.76;100645.86;1713323;83;21109;-65
2023/01/04 05:00:24;;;;;;;7.80;4.05;;;;;;;14.37;37.62;100652.80;1712972;82;21228;-64
2023/01/04 05:02:52;;;;;;;7.40;4.40;;;;;;;15.03;37.45;100648.48;1713102;83;20998;-65
2023/01/04 05:05:19;;;;;;;9.08;3.98;;;;;;;15.22;36.67;100649.80;1709860;83;21598;-65
2023/01/04 05:07:46;;;;;;;8.53;4.28;;;;;;;15.22;36.67;100649.80;1707235;84;21097;-65
2023/01/04 05:10:13;;;;;;;8.38;3.87;;;;;;;14.80;38.13;100650.42;1706980;84;21117;-65
2023/01/04 05:15:36;;;;;;;7.08;4.22;;;;;;;14.54;38.31;100662.22;1707072;84;21109;-65
2023/01/04 05:18:03;;;;;;;8.65;4.42;;;;;;;14.54;38.31;100662.22;1707187;84;21086;-65
2023/01/04 05:20:31;;;;;;;8.78;4.37;;;;;;;14.76;37.81;100659.44;1706940;84;21594;-65
2023/01/04 05:22:58;;;;;;;12.30;4.47;;;;;;;15.27;37.66;100657.91;1707293;84;21026;-65
2023/01/04 05:25:24;;;;;;;7.35;4.87;;;;;;;15.47;36.96;100653.45;1707416;84;21108;-64
2023/01/04 05:27:52;;;;;;;8.13;4.20;;;;;;;15.60;36.68;100651.91;1707252;84;21065;-65
2023/01/04 05:33:04;;;;;;;7.12;4.15;;;;;;;15.63;36.37;100654.41;1707013;84;21053;-66
2023/01/04 05:35:32;;;;;;;10.35;3.90;;;;;;;16.10;35.88;100656.50;1706896;84;21069;-65
2023/01/04 05:37:59;;;;;;;6.67;3.83;;;;;;;16.05;36.02;100658.51;1686721;84;21150;-65
2023/01/04 05:40:25;;;;;;;10.35;4.50;;;;;;;16.23;35.50;100650.53;1706957;84;22224;-64
2023/01/04 05:42:52;;;;;;;8.93;4.83;;;;;;;15.91;35.92;100655.70;1707595;84;21058;-64
2023/01/04 05:45:20;;;;;;;7.78;4.62;;;;;;;15.26;36.58;100658.86;1706840;84;21089;-66
2023/01/04 05:47:51;;;;;;;6.80;4.20;;;;;;;15.33;36.49;100655.92;1707263;84;21124;-65
2023/01/04 05:50:20;;;;;;;7.72;4.17;;;;;;;15.51;36.97;100655.02;1706963;84;21691;-65
2023/01/04 05:52:47;;;;;;;8.20;4.62;;;;;;;14.88;37.24;100661.98;1707360;84;21604;-65
2023/01/04 05:55:14;;;;;;;8.63;4.40;;;;;;;15.11;37.23;100659.58;1707211;84;21226;-65
2023/01/04 05:57:40;;;;;;;7.58;4.20;;;;;;;14.80;37.95;100658.38;1707416;84;21345;-64
2023/01/04 06:00:09;;;;;;;7.58;3.87;;;;;;;15.29;36.94;100660.50;1707116;84;21057;-65
2023/01/04 06:02:42;;;;;;;7.70;4.53;;;;;;;15.70;36.73;100651.86;1716740;83;21133;-64
2023/01/04 06:05:09;;;;;;;8.20;4.92;;;;;;;15.18;37.02;100651.72;1722670;83;21030;-64
2023/01/04 06:07:38;;;;;;;5.90;3.75;;;;;;;14.27;38.15;100657.17;1725726;82;21045;-65
2023/01/04 06:10:07;;;;;;;6.62;4.50;;;;;;;14.96;38.00;100651.04;1725668;82;21198;-65
2023/01/04 06:12:33;;;;;;;7.15;4.05;;;;;;;15.24;37.02;100661.20;1725958;82;21065;-66
2023/01/04 06:15:01;;;;;;;7.95;3.95;;;;;;;14.98;37.76;100659.79;1725717;83;21244;-66
2023/01/04 06:17:27;;;;;;;10.93;4.30;;;;;;;14.74;38.21;100656.47;1725934;83;21608;-64
2023/01/04 06:19:54;;;;;;;8.45;3.87;;;;;;;16.33;36.15;100658.41;1725744;82;21521;-63
2023/01/04 06:22:20;;;;;;;8.93;4.45;;;;;;;15.44;37.59;100668.20;1725844;83;20995;-64
2023/01/04 06:24:47;;;;;;;8.78;4.95;;;;;;;15.23;37.05;100674.94;1725750;82;21040;-66
2023/01/04 06:27:13;;;;;;;10.05;4.10;;;;;;;15.67;36.86;100675.89;1725931;82;22087;-65
2023/01/04 06:29:40;;;;;;;8.18;4.28;;;;;;;15.33;37.41;100682.45;1725870;82;21565;-66
2023/01/04 06:32:07;;;;;;;7.95;4.33;;;;;;;15.37;36.99;100678.70;1725836;83;21045;-65
2023/01/04 06:34:33;;;;;;;7.78;4.40;;;;;;;16.12;36.66;100686.48;1726397;82;21025;-66
2023/01/04 06:37:00;;;;;;;8.30;4.60;;;;;;;15.56;36.28;100683.52;1725842;83;21569;-65
2023/01/04 06:39:26;;;;;;;7.58;4.30;;;;;;;15.74;36.49;100688.44;1725951;82;21740;-65
2023/01/04 06:41:52;;;;;;;8.08;4.67;;;;;;;15.79;36.60;100682.89;1725769;82;21550;-64
2023/01/04 06:44:20;;;;;;;7.33;4.45;;;;;;;15.90;36.15;100692.04;1726098;82;21033;-65
2023/01/04 06:46:46;;;;;;;9.40;4.80;;;;;;;15.60;36.92;100693.50;1725817;83;21072;-65
2023/01/04 06:49:13;;;;;;;6.92;4.37;;;;;;;16.01;36.38;100694.17;1725934;83;22200;-64
2023/01/04 06:51:39;;;;;;;9.73;4.15;;;;;;;16.17;35.96;100701.34;1725990;83;21145;-65
2023/01/04 06:54:06;;;;;;;5.58;3.87;;;;;;;15.90;36.70;100699.16;1725721;82;21053;-64
2023/01/04 06:56:34;;;;;;;8.43;4.17;;;;;;;15.93;36.09;100712.27;1725950;83;21025;-64
2023/01/04 06:59:01;;;;;;;8.30;4.28;;;;;;;15.89;36.55;100712.88;1726033;83;21021;-66
2023/01/04 07:01:28;;;;;;;7.92;4.50;;;;;;;15.29;37.30;100709.11;1726222;82;22081;-65
2023/01/04 07:03:55;;;;;;;10.15;4.40;;;;;;;15.12;37.33;100714.38;1726303;83;21134;-65
2023/01/04 07:06:21;;;;;;;6.58;4.58;;;;;;;15.22;37.93;100714.33;1720836;82;21057;-65
2023/01/04 07:08:49;;;;;;;11.03;4.17;;;;;;;15.86;37.24;100718.35;1720658;83;21021;-64
2023/01/04 07:11:16;;;;;;;6.78;4.10;;;;;;;16.65;35.76;100715.19;1693459;83;21120;-65
2023/01/04 07:13:42;;;;;;;6.17;3.98;;;;;;;15.70;37.09;100723.55;1720616;83;21041;-65
2023/01/04 07:16:10;;;;;;;10.98;5.00;;;;;;;15.56;37.21;100719.36;1720424;83;21944;-65
2023/01/04 07:18:37;;;;;;;9.03;4.40;;;;;;;15.77;37.14;100725.92;1720275;83;21854;-66
2023/01/04 07:21:04;;;;;;;9.30;4.75;;;;;;;15.70;37.09;100726.21;1720367;83;21041;-66
2023/01/04 07:23:32;;;;;;;6.22;4.15;;;;;;;15.43;37.51;100716.89;1720480;83;21533;-65
2023/01/04 07:26:01;;;;;;;10.20;4.87;;;;;;;15.19;38.03;100719.78;1720358;83;21085;-66
2023/01/04 07:31:13;;;;;;;7.50;4.87;;;;;;;15.40;38.16;100727.67;1720294;83;21065;-65
2023/01/04 07:33:41;;;;;;;9.00;4.97;;;;;;;15.12;38.70;100726.31;1720535;83;21116;-65
2023/01/04 07:36:08;;;;;;;8.58;4.12;;;;;;;14.94;38.13;100733.31;1720395;83;21561;-66
2023/01/04 07:38:34;;;;;;;8.20;4.10;;;;;;;14.93;39.21;100729.40;1720657;83;21061;-66
2023/01/04 07:41:01;;;;;;;8.90;5.00;;;;;;;15.20;38.31;100733.43;1720327;83;21143;-65
2023/01/04 07:43:29;;;;;;;8.53;4.70;;;;;;;15.39;37.86;100727.26;1720570;83;21084;-65
2023/01/04 07:45:57;;;;;;;8.50;4.67;;;;;;;15.55;38.39;100730.05;1720765;83;21064;-65
2023/01/04 07:48:27;;;;;;;10.93;4.50;;;;;;;15.60;37.79;100739.52;1720461;83;21072;-66
2023/01/04 07:50:54;;;;;;;11.55;4.22;;;;;;;15.26;38.70;100742.44;1720397;83;21013;-65
2023/01/04 07:53:20;;;;;;;9.13;4.65;;;;;;;15.53;37.77;100742.08;1720507;83;21595;-63
2023/01/04 07:55:47;;;;;;;10.05;4.78;;;;;;;15.81;37.05;100748.75;1720679;83;21083;-65
2023/01/04 07:58:13;;;;;;;9.20;4.40;;;;;;;15.69;37.80;100747.05;1720396;83;21052;-65
2023/01/04 08:00:40;;;;;;;12.13;4.60;;;;;;;15.98;36.77;100739.45;1720310;83;21537;-65
2023/01/04 08:03:06;;;;;;;9.45;5.58;;;;;;;16.14;37.31;100740.41;1712783;83;21054;-65
2023/01/04 08:05:33;;;;;;;9.00;4.05;;;;;;;16.15;37.00;100734.17;1710913;83;21701;-67
2023/01/04 08:08:00;;;;;;;7.47;4.33;;;;;;;16.02;36.97;100735.72;1713251;83;21070;-67
2023/01/04 08:10:27;;;;;;;9.38;4.25;;;;;;;15.92;37.71;100735.33;1712892;82;21030;-65
2023/01/04 08:12:53;;;;;;;9.78;4.55;;;;;;;15.75;37.50;100741.06;1709947;83;21018;-65
2023/01/04 08:15:23;;;;;;;9.88;4.53;;;;;;;15.91;37.35;100736.72;1684327;84;21035;-66
2023/01/04 08:17:50;;;;;;;12.23;5.10;;;;;;;15.46;38.02;100748.59;1684466;84;21128;-66
2023/01/04 08:20:17;;;;;;;8.35;4.33;;;;;;;15.58;37.53;100745.84;1684093;85;21051;-66
2023/01/04 08:22:43;;;;;;;11.40;5.20;;;;;;;15.46;38.27;100750.80;1684318;85;21063;-65
2023/01/04 08:25:09;;;;;;;8.65;4.95;;;;;;;15.62;37.97;100749.61;1684447;85;21025;-67
2023/01/04 08:27:36;;;;;;;10.13;4.55;;;;;;;15.89;37.26;100750.54;1684450;85;21107;-65
2023/01/04 08:30:05;;;;;;;8.88;4.67;;;;;;;16.14;37.50;100750.18;1684729;85;21136;-66
2023/01/04 08:32:32;;;;;;;10.08;4.97;;;;;;;15.71;37.14;100748.30;1684398;85;21020;-64
2023/01/04 08:34:58;;;;;;;10.70;4.95;;;;;;;15.77;37.65;100756.46;1684592;84;21658;-65
2023/01/04 08:37:24;;;;;;;11.75;4.60;;;;;;;15.91;37.58;100764.61;1684832;84;21094;-66
2023/01/04 08:39:51;;;;;;;9.55;4.12;;;;;;;15.38;37.91;100770.66;1684738;84;21072;-66
2023/01/04 08:42:17;;;;;;;10.90;4.37;;;;;;;15.70;38.62;100762.06;1684673;84;21547;-66
2023/01/04 08:44:44;;;;;;;8.05;4.10;;;;;;;15.72;38.44;100764.17;1684443;85;21048;-65
2023/01/04 08:47:10;;;;;;;7.47;4.55;;;;;;;15.85;38.98;100775.52;1684406;84;21103;-65
2023/01/04 08:49:38;;;;;;;13.55;4.80;;;;;;;15.96;38.97;100780.32;1684510;85;21055;-66
2023/01/04 08:52:04;;;;;;;9.03;5.17;;;;;;;15.93;39.06;100782.66;1684513;85;21023;-65
2023/01/04 08:54:31;;;;;;;9.73;4.30;;;;;;;16.01;39.45;100784.48;1684488;84;21168;-66
2023/01/04 08:56:58;;;;;;;10.30;4.65;;;;;;;15.91;39.59;100784.53;1684334;85;21535;-65
2023/01/04 08:59:26;;;;;;;10.48;4.40;;;;;;;15.82;40.53;100782.32;1684674;84;21015;-64
2023/01/04 09:01:52;;;;;;;8.60;4.67;;;;;;;15.68;40.71;100774.52;1684402;84;21087;-66
2023/01/04 09:04:19;;;;;;;7.22;4.28;;;;;;;15.88;40.61;100782.03;1699097;83;21102;-66
2023/01/04 09:06:45;;;;;;;8.83;5.37;;;;;;;15.82;41.19;100788.96;1725890;83;21062;-65
2023/01/04 09:09:13;;;;;;;8.13;4.60;;;;;;;15.58;41.23;100779.87;1726055;82;21029;-66
2023/01/04 09:11:39;;;;;;;6.28;4.35;;;;;;;15.58;41.49;100775.90;1725985;83;21029;-66
2023/01/04 09:14:12;;;;;;;6.58;3.98;;;;;;;15.94;41.55;100788.35;1726064;82;21014;-64
2023/01/04 09:16:36;;;;;;;12.45;4.87;;;;;;;15.90;41.30;100785.48;1725392;82;21044;-67
2023/01/04 09:19:02;;;;;;;6.33;3.62;;;;;;;16.04;41.03;100781.67;1726196;83;21096;-66
2023/01/04 09:21:28;;;;;;;11.10;4.50;;;;;;;15.87;41.16;100780.30;1725680;83;21033;-66
2023/01/04 09:23:57;;;;;;;11.95;4.97;;;;;;;15.71;41.44;100778.84;1726033;83;21077;-66
2023/01/04 09:26:23;;;;;;;6.95;4.25;;;;;;;15.98;41.22;100777.13;1725765;83;21006;-65
2023/01/04 09:28:53;;;;;;;7.55;4.50;;;;;;;15.75;41.29;100772.93;1726150;83;21858;-65
2023/01/04 09:31:25;;;;;;;8.25;4.40;;;;;;;15.37;42.21;100772.91;1725917;82;21108;-65
2023/01/04 09:33:52;;;;;;;7.40;5.03;;;;;;;15.28;42.35;100775.55;1725868;82;21572;-66
2023/01/04 09:36:19;;;;;;;7.87;4.62;;;;;;;15.46;42.20;100781.33;1725679;83;21050;-66
2023/01/04 09:38:48;;;;;;;9.63;4.72;;;;;;;15.27;42.75;100777.31;1725992;82;21031;-65
2023/01/04 09:41:30;;;;;;;12.05;4.70;;;;;;;15.50;42.46;100780.70;1725995;82;21080;-64
2023/01/04 09:44:07;;;;;;;13.15;6.12;;;;;;;15.63;42.60;100781.84;1725842;83;21118;-66
2023/01/04 09:46:47;;;;;;;9.38;4.97;;;;;;;15.17;43.50;100776.03;1725464;82;21084;-66
2023/01/04 09:49:25;;;;;;;12.30;5.53;;;;;;;15.30;43.37;100769.23;1726107;83;21028;-65
2023/01/04 09:52:06;;;;;;;9.15;5.33;;;;;;;15.44;43.57;100769.06;1719901;83;21803;-67
2023/01/04 09:55:01;;;;;;;7.30;4.08;;;;;;;15.40;43.88;100767.00;1726017;82;21037;-67
2023/01/04 09:57:35;;;;;;;11.10;4.75;;;;;;;15.15;44.23;100767.28;1695431;84;21143;-66
2023/01/04 10:00:11;;;;;;;7.17;4.40;;;;;;;15.34;44.06;100762.45;1667786;84;21600;-66
2023/01/04 10:03:06;;;;;;;11.65;5.45;;;;;;;15.02;44.64;100762.13;1695619;84;21575;-66
2023/01/04 10:05:32;;;;;;;6.97;3.90;;;;;;;15.13;44.50;100761.18;1691623;84;21096;-66
2023/01/04 10:08:00;;;;;;;5.67;3.62;;;;;;;15.79;43.45;100762.56;1640385;84;21128;-66
2023/01/04 10:10:38;;;;;;;8.55;3.72;;;;;;;16.14;43.14;100753.69;1689947;84;21808;-65
2023/01/04 10:13:17;;;;;;;8.10;4.40;;;;;;;16.29;42.60;100752.55;1689931;84;21065;-66
2023/01/04 10:15:52;;;;;;;7.20;3.40;;;;;;;16.21;42.92;100748.93;1690017;84;21092;-66
2023/01/04 10:18:27;;;;;;;6.60;3.80;;;;;;;16.77;42.09;100731.84;1689708;84;21100;-66
2023/01/04 10:21:22;;;;;;;4.72;3.52;;;;;;;16.85;41.35;100736.78;1689879;84;21080;-68
2023/01/04 10:24:24;;;;;;;4.53;3.00;;;;;;;17.11;40.92;100737.17;1690091;84;21794;-65
2023/01/04 10:27:08;;;;;;;5.97;3.02;;;;;;;17.27;40.54;100735.37;1690106;84;21060;-67
2023/01/04 10:29:58;;;;;;;7.92;2.90;;;;;;;17.03;40.74;100738.93;1689944;84;21072;-66
2023/01/04 10:32:42;;;;;;;4.95;2.90;;;;;;;16.81;40.67;100733.89;1689984;84;21585;-65
2023/01/04 10:35:17;;;;;;;4.67;2.30;;;;;;;16.93;40.70;100733.70;1689848;84;21064;-66
2023/01/04 10:37:43;;;;;;;3.62;2.58;;;;;;;17.30;39.89;100729.91;1690054;84;21073;-67
2023/01/04 10:40:14;;;;;;;3.27;2.12;;;;;;;17.33;39.37;100728.39;1689903;84;21116;-67
2023/01/04 10:42:51;;;;;;;3.47;2.17;;;;;;;17.44;39.36;100722.92;1690137;84;21076;-67
2023/01/04 10:45:26;;;;;;;5.05;2.45;;;;;;;17.35;38.86;100719.00;1687769;84;21263;-67
2023/01/04 10:48:04;;;;;;;4.03;2.12;;;;;;;17.25;38.86;100720.44;1689284;84;21163;-64
2023/01/04 10:50:57;;;;;;;2.30;2.10;;;;;;;16.94;39.28;100726.98;1684909;84;21120;-67
2023/01/04 10:54:05;;;;;;;5.70;2.30;;;;;;;16.82;39.41;100722.33;1684252;85;21002;-65
2023/01/04 10:56:57;;;;;;;4.33;1.75;;;;;;;17.04;40.07;100726.00;1685874;84;21049;-65
2023/01/04 10:59:45;;;;;;;3.72;1.80;;;;;;;17.67;38.90;100730.50;1687131;85;21077;-64
2023/01/04 11:02:44;;;;;;;4.15;1.82;;;;;;;17.43;38.61;100735.87;1687037;85;21092;-67
2023/01/04 11:05:19;;;;;;;4.80;1.77;;;;;;;16.95;38.00;100729.16;1674767;85;21985;-66
2023/01/04 11:08:06;;;;;;;3.02;1.70;;;;;;;17.32;38.50;100733.34;1644617;87;21533;-67
2023/01/04 11:10:43;;;;;;;1.65;1.17;;;;;;;17.44;38.58;100725.59;1630890;88;21060;-65
2023/01/04 11:13:10;;;;;;;2.05;1.20;;;;;;;17.04;37.79;100730.47;1644765;87;21485;-65
2023/01/04 11:15:37;;;;;;;2.27;1.30;;;;;;;17.18;37.29;100730.56;1644796;87;21120;-66
2023/01/04 11:18:05;;;;;;;4.15;1.27;;;;;;;17.15;37.28;100730.27;1644797;87;22348;-66
2023/01/04 11:20:32;;;;;;;1.95;1.25;;;;;;;17.39;36.84;100731.17;1644703;87;21111;-65
2023/01/04 11:23:15;;;;;;;2.77;1.20;;;;;;;16.82;37.13;100728.97;1644420;87;21095;-65
2023/01/04 11:25:49;;;;;;;1.72;1.40;;;;;;;17.29;36.94;100722.84;1644558;87;21171;-66
2023/01/04 11:28:22;;;;;;;1.95;1.50;;;;;;;16.93;36.92;100727.93;1644786;87;21092;-66
2023/01/04 11:31:10;;;;;;;2.15;1.40;;;;;;;16.87;38.09;100724.27;1644909;87;23167;-66
2023/01/04 11:33:59;;;;;;;2.40;1.27;;;;;;;17.45;36.75;100724.66;1644643;87;21515;-66
2023/01/04 11:36:36;;;;;;;5.58;1.65;;;;;;;17.93;35.81;100730.34;1644966;87;21115;-66
2023/01/04 11:39:06;;;;;;;4.20;1.70;;;;;;;18.05;35.68;100723.44;1644828;87;21147;-65
2023/01/04 11:41:33;;;;;;;2.80;1.22;;;;;;;17.96;35.67;100714.66;1659033;86;21053;-65
2023/01/04 11:44:05;;;;;;;2.02;1.22;;;;;;;18.07;35.32;100718.88;1659562;86;21255;-65
2023/01/04 11:46:33;;;;;;;1.82;1.20;;;;;;;18.76;35.25;100720.53;1659451;86;21665;-66
2023/01/04 11:49:00;;;;;;;2.25;1.35;;;;;;;19.38;33.22;100717.06;1659513;86;21034;-66
2023/01/04 11:51:33;;;;;;;1.98;1.10;;;;;;;18.53;33.69;100709.45;1659453;86;21033;-66
2023/01/04 11:54:17;;;;;;;2.95;1.42;;;;;;;18.16;33.81;100709.02;1659703;86;21056;-67
2023/01/04 11:57:02;;;;;;;1.55;1.15;;;;;;;17.69;33.66;100709.97;1660716;86;21184;-66
2023/01/04 11:59:30;;;;;;;1.70;1.30;;;;;;;17.52;34.12;100715.37;1662266;86;21080;-65
2023/01/04 12:02:22;;;;;;;2.22;1.50;;;;;;;17.34;34.70;100719.45;1662112;86;21113;-67
2023/01/04 12:04:49;;;;;;;3.70;1.80;;;;;;;17.07;34.29;100728.52;1660765;85;21088;-66
2023/01/04 12:07:29;;;;;;;3.27;1.30;;;;;;;16.97;34.15;100728.13;1631931;86;21060;-65
2023/01/04 12:09:59;;;;;;;1.75;1.02;;;;;;;16.62;35.07;100727.81;1639090;87;21110;-65
2023/01/04 12:12:30;;;;;;;2.25;1.07;;;;;;;16.18;35.81;100732.30;1637892;87;21062;-63
2023/01/04 12:15:01;;;;;;;2.08;1.40;;;;;;;16.08;36.11;100728.78;1639436;87;21368;-65
2023/01/04 12:17:43;;;;;;;3.75;1.22;;;;;;;16.33;36.07;100724.41;1656128;86;21123;-67
2023/01/04 12:20:13;;;;;;;;;;;;;;;16.58;35.22;100718.64;1659100;86;21116;-66
2023/01/04 12:22:39;;;;;;;3.58;1.42;;;;;;;16.84;36.24;100721.78;1656240;85;21164;-65
2023/01/04 12:25:36;;;;;;;2.87;1.37;;;;;;;16.41;35.63;100730.64;1656059;85;22148;-64
2023/01/04 12:28:03;;;;;;;2.62;1.30;;;;;;;16.31;35.82;100728.94;1656244;85;21123;-65
2023/01/04 12:30:44;;;;;;;2.72;1.22;;;;;;;16.29;36.54;100727.30;1656513;86;21072;-65
2023/01/04 12:33:32;;;;;;;2.83;1.30;;;;;;;16.27;35.94;100724.71;1656291;86;21131;-64
2023/01/04 12:36:03;;;;;;;2.60;1.25;;;;;;;16.04;36.06;100717.91;1656223;85;21119;-66
2023/01/04 12:38:58;;;;;;;1.65;1.30;;;;;;;16.50;36.25;100724.85;1656126;86;21110;-66